METAR Data
IDs: Format: Raw Decoded Include TAF

Data at: 1534 UTC 03 Dec 2021

LIRE 031255Z 02005KT 9999 FEW020 SCT030 15/12 Q1005 RMK BKN VIS MIN 9999 WIND THR13 04007KT WIND THR31 /////KT BLU